ANA505 RJOO-RJFM
Flight info
| Callsign | ANA505 |
|---|---|
| Flight time | 0h 52m |
| Altitude | 32000 |
| Route | TIGER MAIKO AWAJI Y232 SIROK Y402 RYUGU |
| Aircraft | B788/H-SDE1E2E3FGHIJ2J3J4J5M1RWXY/LB1D1 |
Departure
| Time | 2026-04-30 05:01 |
|---|---|
| Airport | Osaka Itami International Airport (RJOO) |
Arrival
| Time | 2026-04-30 05:53 |
|---|---|
| Airport | Miyazaki Airport (RJFM) |
| Time | Latitude | Longitude | Altitude | Speed | Heading |
|---|---|---|---|---|---|
| 2026-04-30 04:33 | 34.78813 | 135.44274 | 56 ft | 0 kts | 67° |
| 2026-04-30 04:47 | 34.78812 | 135.44270 | 56 ft | 3 kts | 67° |
| 2026-04-30 04:47 | 34.78801 | 135.44241 | 48 ft | 4 kts | 69° |
| 2026-04-30 04:47 | 34.78792 | 135.44210 | 48 ft | 4 kts | 69° |
| 2026-04-30 04:48 | 34.78781 | 135.44180 | 48 ft | 4 kts | 63° |
| 2026-04-30 04:48 | 34.78768 | 135.44151 | 48 ft | 4 kts | 55° |
| 2026-04-30 04:48 | 34.78752 | 135.44126 | 48 ft | 4 kts | 49° |
| 2026-04-30 04:48 | 34.78743 | 135.44114 | 48 ft | 1 kts | 49° |
| 2026-04-30 04:49 | 34.78743 | 135.44113 | 48 ft | 0 kts | 49° |
| 2026-04-30 04:54 | 34.78749 | 135.44121 | 56 ft | 3 kts | 44° |
| 2026-04-30 04:54 | 34.78756 | 135.44122 | 51 ft | 1 kts | 16° |
| 2026-04-30 04:54 | 34.78764 | 135.44115 | 48 ft | 2 kts | 332° |
| 2026-04-30 04:55 | 34.78794 | 135.44069 | 50 ft | 12 kts | 310° |
| 2026-04-30 04:55 | 34.78875 | 135.43965 | 50 ft | 18 kts | 314° |
| 2026-04-30 04:55 | 34.78912 | 135.43921 | 48 ft | 1 kts | 315° |
| 2026-04-30 04:55 | 34.78935 | 135.43893 | 51 ft | 8 kts | 314° |
| 2026-04-30 04:56 | 34.78988 | 135.43830 | 51 ft | 13 kts | 315° |
| 2026-04-30 04:56 | 34.79068 | 135.43735 | 50 ft | 19 kts | 316° |
| 2026-04-30 04:56 | 34.79158 | 135.43625 | 49 ft | 14 kts | 314° |
| 2026-04-30 04:56 | 34.79198 | 135.43581 | 48 ft | 7 kts | 329° |
| 2026-04-30 04:57 | 34.79249 | 135.43574 | 52 ft | 8 kts | 7° |
| 2026-04-30 04:57 | 34.79313 | 135.43569 | 48 ft | 10 kts | 343° |
| 2026-04-30 04:57 | 34.79349 | 135.43528 | 51 ft | 6 kts | 298° |
| 2026-04-30 04:57 | 34.79377 | 135.43481 | 50 ft | 8 kts | 311° |
| 2026-04-30 04:58 | 34.79423 | 135.43421 | 52 ft | 11 kts | 315° |
| 2026-04-30 04:58 | 34.79483 | 135.43346 | 50 ft | 14 kts | 310° |
| 2026-04-30 04:58 | 34.79471 | 135.43265 | 51 ft | 11 kts | 230° |
| 2026-04-30 04:58 | 34.79412 | 135.43189 | 50 ft | 14 kts | 224° |
| 2026-04-30 04:59 | 34.79335 | 135.43098 | 53 ft | 16 kts | 225° |
| 2026-04-30 04:59 | 34.79251 | 135.42995 | 48 ft | 18 kts | 225° |
| 2026-04-30 04:59 | 34.79157 | 135.42910 | 51 ft | 15 kts | 188° |
| 2026-04-30 04:59 | 34.79069 | 135.42950 | 51 ft | 13 kts | 149° |
| 2026-04-30 05:00 | 34.78987 | 135.43042 | 50 ft | 24 kts | 134° |
| 2026-04-30 05:00 | 34.78760 | 135.43317 | 50 ft | 79 kts | 133° |
| 2026-04-30 05:00 | 34.78404 | 135.43749 | 50 ft | 134 kts | 135° |
| 2026-04-30 05:00 | 34.77595 | 135.44686 | 481 ft | 162 kts | 141° |
| 2026-04-30 05:01 | 34.76218 | 135.45634 | 1424 ft | 192 kts | 172° |
| 2026-04-30 05:01 | 34.75328 | 135.45384 | 1928 ft | 207 kts | 201° |
| 2026-04-30 05:01 | 34.74152 | 135.44112 | 2363 ft | 249 kts | 227° |
| 2026-04-30 05:01 | 34.72961 | 135.42472 | 3311 ft | 259 kts | 223° |
| 2026-04-30 05:02 | 34.71671 | 135.40979 | 4689 ft | 255 kts | 218° |
| 2026-04-30 05:02 | 34.70312 | 135.39549 | 5867 ft | 262 kts | 218° |
| 2026-04-30 05:02 | 34.68933 | 135.38070 | 7017 ft | 265 kts | 220° |
| 2026-04-30 05:02 | 34.67572 | 135.36564 | 8207 ft | 264 kts | 223° |
| 2026-04-30 05:03 | 34.66550 | 135.34705 | 9363 ft | 269 kts | 246° |
| 2026-04-30 05:03 | 34.65959 | 135.32547 | 10422 ft | 274 kts | 250° |
| 2026-04-30 05:03 | 34.65667 | 135.30144 | 10769 ft | 307 kts | 270° |
| 2026-04-30 05:03 | 34.66047 | 135.27459 | 11021 ft | 338 kts | 279° |
| 2026-04-30 05:04 | 34.66622 | 135.24573 | 11187 ft | 365 kts | 281° |
| 2026-04-30 05:04 | 34.67254 | 135.21475 | 11356 ft | 387 kts | 280° |
| 2026-04-30 05:04 | 34.67466 | 135.18251 | 12221 ft | 382 kts | 266° |
| 2026-04-30 05:04 | 34.67056 | 135.15068 | 13013 ft | 382 kts | 254° |
| 2026-04-30 05:05 | 34.66068 | 135.12073 | 13811 ft | 384 kts | 244° |
| 2026-04-30 05:05 | 34.64886 | 135.09143 | 14412 ft | 389 kts | 244° |
| 2026-04-30 05:05 | 34.63693 | 135.06179 | 15062 ft | 392 kts | 245° |
| 2026-04-30 05:06 | 34.60926 | 135.00411 | 16248 ft | 402 kts | 233° |
| 2026-04-30 05:06 | 34.58949 | 134.97987 | 16818 ft | 407 kts | 222° |
| 2026-04-30 05:06 | 34.56637 | 134.95959 | 17362 ft | 413 kts | 217° |
| 2026-04-30 05:06 | 34.54268 | 134.93971 | 17900 ft | 416 kts | 217° |
| 2026-04-30 05:07 | 34.51875 | 134.91974 | 18404 ft | 420 kts | 217° |
| 2026-04-30 05:07 | 34.49463 | 134.89963 | 18878 ft | 421 kts | 218° |
| 2026-04-30 05:07 | 34.47081 | 134.87975 | 19371 ft | 422 kts | 218° |
| 2026-04-30 05:07 | 34.44657 | 134.85953 | 19886 ft | 422 kts | 218° |
| 2026-04-30 05:08 | 34.42236 | 134.83934 | 20349 ft | 424 kts | 218° |
| 2026-04-30 05:08 | 34.39794 | 134.81900 | 20745 ft | 427 kts | 218° |
| 2026-04-30 05:08 | 34.37341 | 134.79859 | 21197 ft | 428 kts | 218° |
| 2026-04-30 05:08 | 34.34883 | 134.77815 | 21611 ft | 430 kts | 218° |
| 2026-04-30 05:09 | 34.32413 | 134.75762 | 22027 ft | 430 kts | 218° |
| 2026-04-30 05:09 | 34.29956 | 134.73724 | 22620 ft | 427 kts | 219° |
| 2026-04-30 05:09 | 34.27587 | 134.71600 | 23151 ft | 422 kts | 224° |
| 2026-04-30 05:09 | 34.25519 | 134.69111 | 23703 ft | 417 kts | 232° |
| 2026-04-30 05:10 | 34.23661 | 134.66443 | 24177 ft | 414 kts | 232° |
| 2026-04-30 05:10 | 34.21802 | 134.63788 | 24659 ft | 412 kts | 232° |
| 2026-04-30 05:10 | 34.19958 | 134.61146 | 25160 ft | 411 kts | 232° |
| 2026-04-30 05:10 | 34.18141 | 134.58533 | 25889 ft | 403 kts | 232° |
| 2026-04-30 05:11 | 34.16335 | 134.55942 | 26230 ft | 406 kts | 231° |
| 2026-04-30 05:11 | 34.14511 | 134.53333 | 26699 ft | 406 kts | 231° |
| 2026-04-30 05:11 | 34.12694 | 134.50737 | 27301 ft | 404 kts | 231° |
| 2026-04-30 05:11 | 34.10910 | 134.48186 | 27906 ft | 402 kts | 231° |
| 2026-04-30 05:12 | 34.09108 | 134.45610 | 28550 ft | 400 kts | 231° |
| 2026-04-30 05:12 | 34.07314 | 134.43049 | 29222 ft | 398 kts | 231° |
| 2026-04-30 05:12 | 34.05531 | 134.40507 | 29945 ft | 395 kts | 230° |
| 2026-04-30 05:12 | 34.03759 | 134.37982 | 30592 ft | 393 kts | 230° |
| 2026-04-30 05:13 | 34.02008 | 134.35488 | 31395 ft | 385 kts | 230° |
| 2026-04-30 05:13 | 34.00278 | 134.33037 | 31997 ft | 385 kts | 230° |
| 2026-04-30 05:13 | 33.96760 | 134.28014 | 32077 ft | 394 kts | 230° |
| 2026-04-30 05:14 | 33.93216 | 134.22995 | 32069 ft | 393 kts | 230° |
| 2026-04-30 05:14 | 33.89699 | 134.17999 | 32083 ft | 389 kts | 230° |
| 2026-04-30 05:15 | 33.86188 | 134.13036 | 32055 ft | 389 kts | 230° |
| 2026-04-30 05:15 | 33.82676 | 134.08069 | 32064 ft | 390 kts | 230° |
| 2026-04-30 05:16 | 33.79168 | 134.03106 | 32054 ft | 391 kts | 230° |
| 2026-04-30 05:16 | 33.75668 | 133.98194 | 32061 ft | 383 kts | 230° |
| 2026-04-30 05:17 | 33.72198 | 133.93277 | 32058 ft | 385 kts | 230° |
| 2026-04-30 05:17 | 33.68695 | 133.88359 | 32039 ft | 388 kts | 230° |
| 2026-04-30 05:18 | 33.65193 | 133.83444 | 32038 ft | 387 kts | 230° |
| 2026-04-30 05:18 | 33.61706 | 133.78551 | 32026 ft | 383 kts | 230° |
| 2026-04-30 05:19 | 33.58221 | 133.73673 | 32016 ft | 387 kts | 230° |
| 2026-04-30 05:19 | 33.54706 | 133.68762 | 32023 ft | 387 kts | 228° |
| 2026-04-30 05:20 | 33.50799 | 133.64334 | 32031 ft | 386 kts | 224° |
| 2026-04-30 05:20 | 33.46848 | 133.60008 | 32016 ft | 382 kts | 224° |
| 2026-04-30 05:21 | 33.42893 | 133.55703 | 32023 ft | 385 kts | 224° |
| 2026-04-30 05:21 | 33.38935 | 133.51392 | 32027 ft | 385 kts | 224° |
| 2026-04-30 05:22 | 33.34971 | 133.47083 | 32030 ft | 385 kts | 224° |
| 2026-04-30 05:22 | 33.30982 | 133.42750 | 32042 ft | 389 kts | 224° |
| 2026-04-30 05:23 | 33.27023 | 133.38458 | 32026 ft | 382 kts | 224° |
| 2026-04-30 05:23 | 33.23082 | 133.34188 | 32023 ft | 383 kts | 223° |
| 2026-04-30 05:24 | 33.19126 | 133.29910 | 32015 ft | 386 kts | 223° |
| 2026-04-30 05:24 | 33.15146 | 133.25611 | 32004 ft | 386 kts | 223° |
| 2026-04-30 05:25 | 33.11166 | 133.21317 | 32011 ft | 384 kts | 223° |
| 2026-04-30 05:25 | 33.07221 | 133.17064 | 31986 ft | 382 kts | 223° |
| 2026-04-30 05:26 | 33.03277 | 133.12818 | 31995 ft | 385 kts | 223° |
| 2026-04-30 05:26 | 32.99304 | 133.08547 | 31987 ft | 384 kts | 223° |
| 2026-04-30 05:27 | 32.95333 | 133.04283 | 31981 ft | 384 kts | 223° |
| 2026-04-30 05:27 | 32.91356 | 133.00018 | 31987 ft | 386 kts | 224° |
| 2026-04-30 05:28 | 32.87369 | 132.95746 | 31979 ft | 385 kts | 223° |
| 2026-04-30 05:28 | 32.83377 | 132.91476 | 31952 ft | 386 kts | 223° |
| 2026-04-30 05:29 | 32.79397 | 132.87228 | 31968 ft | 385 kts | 223° |
| 2026-04-30 05:29 | 32.75399 | 132.82954 | 31965 ft | 387 kts | 223° |
| 2026-04-30 05:30 | 32.71424 | 132.78717 | 31963 ft | 386 kts | 223° |
| 2026-04-30 05:30 | 32.67431 | 132.74465 | 31957 ft | 385 kts | 223° |
| 2026-04-30 05:31 | 32.63437 | 132.70218 | 31930 ft | 385 kts | 223° |
| 2026-04-30 05:31 | 32.59445 | 132.65977 | 31936 ft | 385 kts | 223° |
| 2026-04-30 05:32 | 32.55454 | 132.61743 | 31941 ft | 385 kts | 223° |
| 2026-04-30 05:32 | 32.51454 | 132.57505 | 31939 ft | 388 kts | 223° |
| 2026-04-30 05:33 | 32.47422 | 132.53238 | 31936 ft | 388 kts | 223° |
| 2026-04-30 05:33 | 32.45435 | 132.51139 | 31908 ft | 375 kts | 223° |
| 2026-04-30 05:33 | 32.43522 | 132.49119 | 31466 ft | 366 kts | 223° |
| 2026-04-30 05:34 | 32.41610 | 132.47097 | 30520 ft | 372 kts | 223° |
| 2026-04-30 05:34 | 32.39665 | 132.45042 | 29527 ft | 377 kts | 223° |
| 2026-04-30 05:34 | 32.37686 | 132.42959 | 28505 ft | 383 kts | 223° |
| 2026-04-30 05:34 | 32.35681 | 132.40847 | 27515 ft | 389 kts | 223° |
| 2026-04-30 05:35 | 32.33650 | 132.38705 | 26829 ft | 389 kts | 223° |
| 2026-04-30 05:35 | 32.31688 | 132.36642 | 26972 ft | 368 kts | 223° |
| 2026-04-30 05:35 | 32.29826 | 132.34687 | 27018 ft | 349 kts | 223° |
| 2026-04-30 05:35 | 32.27993 | 132.32756 | 25796 ft | 362 kts | 224° |
| 2026-04-30 05:36 | 32.26117 | 132.30780 | 25188 ft | 359 kts | 224° |
| 2026-04-30 05:36 | 32.24259 | 132.28833 | 24526 ft | 357 kts | 224° |
| 2026-04-30 05:36 | 32.22405 | 132.26888 | 23888 ft | 355 kts | 225° |
| 2026-04-30 05:36 | 32.20605 | 132.24906 | 23224 ft | 351 kts | 230° |
| 2026-04-30 05:37 | 32.19006 | 132.22749 | 22496 ft | 348 kts | 231° |
| 2026-04-30 05:37 | 32.17412 | 132.20616 | 21836 ft | 345 kts | 231° |
| 2026-04-30 05:37 | 32.15833 | 132.18500 | 21197 ft | 342 kts | 230° |
| 2026-04-30 05:37 | 32.14275 | 132.16405 | 20526 ft | 338 kts | 230° |
| 2026-04-30 05:38 | 32.12726 | 132.14322 | 19869 ft | 336 kts | 230° |
| 2026-04-30 05:38 | 32.11192 | 132.12263 | 19224 ft | 333 kts | 230° |
| 2026-04-30 05:38 | 32.09671 | 132.10224 | 18596 ft | 330 kts | 230° |
| 2026-04-30 05:38 | 32.08178 | 132.08222 | 17919 ft | 329 kts | 230° |
| 2026-04-30 05:39 | 32.06671 | 132.06204 | 17248 ft | 327 kts | 230° |
| 2026-04-30 05:39 | 32.05179 | 132.04195 | 16609 ft | 324 kts | 232° |
| 2026-04-30 05:39 | 32.03961 | 132.01972 | 15919 ft | 322 kts | 242° |
| 2026-04-30 05:39 | 32.02923 | 131.99635 | 15309 ft | 321 kts | 242° |
| 2026-04-30 05:40 | 32.01894 | 131.97305 | 14718 ft | 320 kts | 243° |
| 2026-04-30 05:40 | 32.00868 | 131.94977 | 14105 ft | 317 kts | 243° |
| 2026-04-30 05:40 | 31.99850 | 131.92680 | 13153 ft | 318 kts | 243° |
| 2026-04-30 05:40 | 31.98857 | 131.90457 | 12954 ft | 294 kts | 242° |
| 2026-04-30 05:41 | 31.97954 | 131.88413 | 12836 ft | 268 kts | 243° |
| 2026-04-30 05:41 | 31.97112 | 131.86500 | 12156 ft | 263 kts | 242° |
| 2026-04-30 05:41 | 31.96268 | 131.84594 | 11443 ft | 260 kts | 242° |
| 2026-04-30 05:41 | 31.95430 | 131.82711 | 10880 ft | 259 kts | 242° |
| 2026-04-30 05:42 | 31.94604 | 131.80851 | 10414 ft | 255 kts | 242° |
| 2026-04-30 05:42 | 31.93783 | 131.79003 | 9970 ft | 254 kts | 241° |
| 2026-04-30 05:42 | 31.92969 | 131.77171 | 9477 ft | 252 kts | 241° |
| 2026-04-30 05:42 | 31.92155 | 131.75340 | 8917 ft | 252 kts | 240° |
| 2026-04-30 05:43 | 31.91341 | 131.73516 | 8354 ft | 251 kts | 240° |
| 2026-04-30 05:43 | 31.90530 | 131.71694 | 7839 ft | 251 kts | 240° |
| 2026-04-30 05:43 | 31.89930 | 131.69766 | 7332 ft | 255 kts | 259° |
| 2026-04-30 05:43 | 31.89977 | 131.67709 | 7040 ft | 252 kts | 279° |
| 2026-04-30 05:44 | 31.90513 | 131.65809 | 6751 ft | 244 kts | 284° |
| 2026-04-30 05:44 | 31.91074 | 131.63954 | 6461 ft | 237 kts | 284° |
| 2026-04-30 05:44 | 31.91622 | 131.62157 | 6169 ft | 230 kts | 284° |
| 2026-04-30 05:44 | 31.92152 | 131.60404 | 5885 ft | 224 kts | 285° |
| 2026-04-30 05:45 | 31.92669 | 131.58693 | 5611 ft | 220 kts | 285° |
| 2026-04-30 05:45 | 31.93170 | 131.57031 | 5368 ft | 211 kts | 285° |
| 2026-04-30 05:45 | 31.93652 | 131.55430 | 5129 ft | 203 kts | 286° |
| 2026-04-30 05:45 | 31.94120 | 131.53888 | 4883 ft | 198 kts | 286° |
| 2026-04-30 05:46 | 31.94580 | 131.52373 | 4748 ft | 192 kts | 286° |
| 2026-04-30 05:46 | 31.95015 | 131.50928 | 4634 ft | 181 kts | 286° |
| 2026-04-30 05:46 | 31.95361 | 131.49580 | 4505 ft | 167 kts | 276° |
| 2026-04-30 05:46 | 31.95278 | 131.48185 | 4310 ft | 174 kts | 259° |
| 2026-04-30 05:47 | 31.95187 | 131.47251 | 4158 ft | 173 kts | 262° |
| 2026-04-30 05:47 | 31.95081 | 131.45842 | 3945 ft | 174 kts | 265° |
| 2026-04-30 05:47 | 31.94988 | 131.44437 | 3702 ft | 167 kts | 265° |
| 2026-04-30 05:47 | 31.94888 | 131.43083 | 3476 ft | 164 kts | 265° |
| 2026-04-30 05:48 | 31.94795 | 131.41744 | 3266 ft | 166 kts | 266° |
| 2026-04-30 05:48 | 31.94692 | 131.40360 | 3035 ft | 168 kts | 266° |
| 2026-04-30 05:48 | 31.94597 | 131.39000 | 2808 ft | 172 kts | 265° |
| 2026-04-30 05:48 | 31.94320 | 131.37636 | 2536 ft | 166 kts | 246° |
| 2026-04-30 05:49 | 31.93734 | 131.36553 | 2356 ft | 153 kts | 230° |
| 2026-04-30 05:49 | 31.92925 | 131.35720 | 2148 ft | 158 kts | 211° |
| 2026-04-30 05:49 | 31.91943 | 131.35211 | 1943 ft | 149 kts | 193° |
| 2026-04-30 05:49 | 31.90934 | 131.35056 | 1754 ft | 144 kts | 176° |
| 2026-04-30 05:50 | 31.89965 | 131.35216 | 1558 ft | 138 kts | 159° |
| 2026-04-30 05:50 | 31.89068 | 131.35680 | 1405 ft | 143 kts | 145° |
| 2026-04-30 05:50 | 31.88313 | 131.36387 | 1194 ft | 140 kts | 129° |
| 2026-04-30 05:50 | 31.87751 | 131.37293 | 997 ft | 127 kts | 115° |
| 2026-04-30 05:51 | 31.87367 | 131.38235 | 853 ft | 133 kts | 105° |
| 2026-04-30 05:51 | 31.87321 | 131.39289 | 690 ft | 129 kts | 79° |
| 2026-04-30 05:51 | 31.87403 | 131.40376 | 538 ft | 135 kts | 79° |
| 2026-04-30 05:51 | 31.87475 | 131.41442 | 364 ft | 133 kts | 81° |
| 2026-04-30 05:52 | 31.87551 | 131.42544 | 219 ft | 133 kts | 77° |
| 2026-04-30 05:52 | 31.87626 | 131.43608 | 45 ft | 129 kts | 77° |
| 2026-04-30 05:52 | 31.87693 | 131.44480 | 39 ft | 85 kts | 86° |
| 2026-04-30 05:52 | 31.87732 | 131.45108 | 37 ft | 70 kts | 84° |
| 2026-04-30 05:53 | 31.87758 | 131.45486 | 37 ft | 19 kts | 83° |
| 2026-04-30 05:53 | 31.87741 | 131.45552 | 38 ft | 4 kts | 141° |
| 2026-04-30 05:53 | 31.87705 | 131.45558 | 37 ft | 6 kts | 187° |
| 2026-04-30 05:53 | 31.87650 | 131.45545 | 38 ft | 11 kts | 195° |
| 2026-04-30 05:54 | 31.87597 | 131.45476 | 40 ft | 12 kts | 252° |
| 2026-04-30 05:54 | 31.87585 | 131.45360 | 42 ft | 17 kts | 265° |
| 2026-04-30 05:54 | 31.87574 | 131.45199 | 40 ft | 23 kts | 269° |
| 2026-04-30 05:54 | 31.87557 | 131.45005 | 40 ft | 22 kts | 266° |
| 2026-04-30 05:55 | 31.87546 | 131.44852 | 39 ft | 18 kts | 264° |
| 2026-04-30 05:55 | 31.87535 | 131.44693 | 37 ft | 21 kts | 266° |
| 2026-04-30 05:55 | 31.87525 | 131.44529 | 36 ft | 18 kts | 266° |
| 2026-04-30 05:55 | 31.87516 | 131.44405 | 35 ft | 15 kts | 264° |
| 2026-04-30 05:56 | 31.87505 | 131.44275 | 35 ft | 17 kts | 264° |
| 2026-04-30 05:56 | 31.87497 | 131.44177 | 36 ft | 2 kts | 264° |
| 2026-04-30 05:56 | 31.87492 | 131.44155 | 36 ft | 4 kts | 251° |
| 2026-04-30 05:56 | 31.87475 | 131.44144 | 36 ft | 4 kts | 193° |
| 2026-04-30 05:57 | 31.87424 | 131.44140 | 37 ft | 9 kts | 176° |
| 2026-04-30 05:57 | 31.87376 | 131.44145 | 36 ft | 4 kts | 176° |
| 2026-04-30 05:57 | 31.87365 | 131.44145 | 36 ft | 1 kts | 176° |
| 2026-04-30 05:57 | 31.87360 | 131.44146 | 36 ft | 0 kts | 176° |